createdAt,value
2018-03-04T00:01:37.127Z,99829.95
2018-03-04T00:04:04.419Z,99822.79
2018-03-04T00:06:30.907Z,99819.66
2018-03-04T00:08:57.272Z,99823.49
2018-03-04T00:11:24.485Z,99820.86
2018-03-04T00:13:50.860Z,99823.45
2018-03-04T00:16:17.562Z,99820.42
2018-03-04T00:18:44.052Z,99825.29
2018-03-04T00:21:11.274Z,99823.41
2018-03-04T00:23:37.642Z,99820.34
2018-03-04T00:26:05.570Z,99819.25
2018-03-04T00:28:32.306Z,99827.54
2018-03-04T00:30:59.169Z,99830.19
2018-03-04T00:33:26.117Z,99826.52
2018-03-04T00:35:53.948Z,99834.09
2018-03-04T00:38:20.851Z,99838.05
2018-03-04T00:40:47.687Z,99837.48
2018-03-04T00:43:15.052Z,99830.38
2018-03-04T00:45:41.896Z,99831.98
2018-03-04T00:48:08.740Z,99826.10
2018-03-04T00:50:35.896Z,99839.63
2018-03-04T00:53:02.777Z,99835.16
2018-03-04T00:55:30.329Z,99837.16
2018-03-04T00:57:57.579Z,99834.45
2018-03-04T01:00:24.340Z,99831.66
2018-03-04T01:02:50.719Z,99828.45
2018-03-04T01:05:17.517Z,99829.23
2018-03-04T01:07:44.296Z,99832.98
2018-03-04T01:10:12.052Z,99824.98
2018-03-04T01:12:39.540Z,99823.02
2018-03-04T01:15:06.765Z,99815.75
2018-03-04T01:17:33.868Z,99813.39
2018-03-04T01:20:00.632Z,99817.20
2018-03-04T01:22:27.593Z,99814.73
2018-03-04T01:24:54.873Z,99819.83
2018-03-04T01:27:22.401Z,99815.23
2018-03-04T01:29:49.290Z,99818.40
2018-03-04T01:32:16.744Z,99810.23
2018-03-04T01:34:43.607Z,99802.10
2018-03-04T01:37:11.158Z,99809.80
2018-03-04T01:39:38.420Z,99807.83
2018-03-04T01:42:06.152Z,99813.81
2018-03-04T01:44:32.948Z,99810.81
2018-03-04T01:47:00.687Z,99806.58
2018-03-04T01:49:27.385Z,99815.94
2018-03-04T01:51:54.168Z,99819.61
2018-03-04T01:54:21.499Z,99810.52
2018-03-04T01:56:48.259Z,99810.16
2018-03-04T01:59:15.112Z,99812.54
2018-03-04T02:01:41.960Z,99800.74
2018-03-04T02:04:09.108Z,99797.81
2018-03-04T02:06:36.079Z,99791.77
2018-03-04T02:09:03.029Z,99791.01
2018-03-04T02:11:29.808Z,99791.14
2018-03-04T02:13:57.378Z,99784.70
2018-03-04T02:16:24.273Z,99788.65
2018-03-04T02:18:51.121Z,99780.52
2018-03-04T02:21:19.500Z,99781.05
2018-03-04T02:23:46.364Z,99781.26
2018-03-04T02:26:13.304Z,99787.42
2018-03-04T02:28:40.417Z,99783.67
2018-03-04T02:31:07.310Z,99774.16
2018-03-04T02:33:34.082Z,99772.09
2018-03-04T02:36:00.934Z,99774.80
2018-03-04T02:38:28.879Z,99779.84
2018-03-04T02:40:56.337Z,99772.54
2018-03-04T02:43:23.089Z,99768.59
2018-03-04T02:45:50.255Z,99776.98
2018-03-04T02:48:17.187Z,99777.12
2018-03-04T02:50:44.995Z,99771.50
2018-03-04T02:53:12.927Z,99775.52
2018-03-04T02:55:39.816Z,99779.22
2018-03-04T02:58:07.290Z,99772.20
2018-03-04T03:00:34.610Z,99763.41
2018-03-04T03:03:01.461Z,99766.74
2018-03-04T03:05:28.408Z,99767.14
2018-03-04T03:07:55.249Z,99762.79
2018-03-04T03:10:21.752Z,99766.81
2018-03-04T03:12:48.099Z,99763.89
2018-03-04T03:15:14.589Z,99759.08
2018-03-04T03:17:40.939Z,99759.58
2018-03-04T03:20:08.459Z,99752.98
2018-03-04T03:22:34.925Z,99746.11
2018-03-04T03:25:01.279Z,99746.11
2018-03-04T03:27:28.371Z,99754.72
2018-03-04T03:29:55.563Z,99747.20
2018-03-04T03:32:22.491Z,99746.81
2018-03-04T03:34:49.281Z,99740.36
2018-03-04T03:37:17.153Z,99743.03
2018-03-04T03:39:44.923Z,99734.73
2018-03-04T03:42:12.473Z,99739.36
2018-03-04T03:44:39.701Z,99736.66
2018-03-04T03:47:06.476Z,99734.02
2018-03-04T03:49:33.328Z,99731.59
2018-03-04T03:52:00.144Z,99729.98
2018-03-04T03:54:27.353Z,99728.73
2018-03-04T03:56:54.188Z,99735.75
2018-03-04T03:59:21.817Z,99744.25
2018-03-04T04:01:48.522Z,99754.86
2018-03-04T04:04:15.409Z,99754.10
2018-03-04T04:06:42.375Z,99759.02
2018-03-04T04:09:09.140Z,99754.63
2018-03-04T04:11:36.247Z,99748.97
2018-03-04T04:14:03.031Z,99755.55
2018-03-04T04:16:29.784Z,99747.79
2018-03-04T04:18:56.842Z,99751.31
2018-03-04T04:21:23.992Z,99750.89
2018-03-04T04:23:51.012Z,99745.69
2018-03-04T04:26:17.793Z,99750.59
2018-03-04T04:28:45.625Z,99749.77
2018-03-04T04:31:12.475Z,99746.31
2018-03-04T04:33:39.532Z,99740.20
2018-03-04T04:36:06.770Z,99739.30
2018-03-04T04:38:33.751Z,99739.66
2018-03-04T04:41:00.540Z,99730.45
2018-03-04T04:43:27.336Z,99730.31
2018-03-04T04:45:54.383Z,99727.60
2018-03-04T04:48:21.237Z,99728.92
2018-03-04T04:50:48.117Z,99720.66
2018-03-04T04:53:14.856Z,99717.67
2018-03-04T04:55:41.669Z,99706.23
2018-03-04T04:58:08.046Z,99707.03
2018-03-04T05:00:35.151Z,99703.27
2018-03-04T05:03:02.264Z,99699.75
2018-03-04T05:05:29.998Z,99698.00
2018-03-04T05:07:56.909Z,99700.59
2018-03-04T05:10:23.901Z,99695.96
2018-03-04T05:12:50.876Z,99697.63
2018-03-04T05:15:18.507Z,99689.99
2018-03-04T05:17:45.247Z,99688.66
2018-03-04T05:20:12.521Z,99693.17
2018-03-04T05:22:39.362Z,99701.30
2018-03-04T05:25:06.248Z,99709.45
2018-03-04T05:27:33.171Z,99705.41
2018-03-04T05:30:00.551Z,99698.58
2018-03-04T05:32:28.120Z,99697.12
2018-03-04T05:34:56.145Z,99700.11
2018-03-04T05:37:22.944Z,99709.57
2018-03-04T05:39:50.495Z,99696.44
2018-03-04T05:42:17.426Z,99698.05
2018-03-04T05:44:44.939Z,99692.70
2018-03-04T05:47:11.762Z,99691.53
2018-03-04T05:49:39.732Z,99691.64
2018-03-04T05:52:06.689Z,99694.50
2018-03-04T05:54:34.316Z,99689.14
2018-03-04T05:57:01.472Z,99693.03
2018-03-04T05:59:28.344Z,99695.28
2018-03-04T06:01:55.267Z,99697.06
2018-03-04T06:04:22.320Z,99696.47
2018-03-04T06:06:49.592Z,99696.19
2018-03-04T06:09:16.453Z,99690.23
2018-03-04T06:11:43.209Z,99701.08
2018-03-04T06:14:11.985Z,99700.59
2018-03-04T06:16:38.813Z,99711.87
2018-03-04T06:19:05.589Z,99698.67
2018-03-04T06:21:33.546Z,99704.42
2018-03-04T06:24:00.423Z,99698.33
2018-03-04T06:26:27.892Z,99704.44
2018-03-04T06:28:55.812Z,99710.89
2018-03-04T06:31:22.596Z,99698.06
2018-03-04T06:33:49.695Z,99702.38
2018-03-04T06:36:16.595Z,99702.70
2018-03-04T06:38:43.621Z,99697.84
2018-03-04T06:41:10.568Z,99703.48
2018-03-04T06:43:37.351Z,99708.19
2018-03-04T06:46:05.301Z,99711.75
2018-03-04T06:48:32.137Z,99714.45
2018-03-04T06:50:59.619Z,99704.28
2018-03-04T06:53:26.883Z,99699.27
2018-03-04T06:55:53.267Z,99694.03
2018-03-04T06:58:20.076Z,99705.61
2018-03-04T07:00:48.025Z,99702.06
2018-03-04T07:03:14.983Z,99705.58
2018-03-04T07:05:41.746Z,99709.05
2018-03-04T07:08:08.670Z,99709.45
2018-03-04T07:10:35.830Z,99708.91
2018-03-04T07:13:02.771Z,99708.67
2018-03-04T07:15:29.650Z,99709.55
2018-03-04T07:17:57.511Z,99720.24
2018-03-04T07:20:23.870Z,99723.52
2018-03-04T07:22:51.424Z,99718.66
2018-03-04T07:25:18.521Z,99714.25
2018-03-04T07:27:45.376Z,99724.70
2018-03-04T07:30:12.133Z,99724.12
2018-03-04T07:32:38.828Z,99721.50
2018-03-04T07:35:06.555Z,99728.84
2018-03-04T07:37:33.708Z,99727.38
2018-03-04T07:40:00.553Z,99718.00
2018-03-04T07:42:27.422Z,99724.48
2018-03-04T07:44:54.314Z,99723.71
2018-03-04T07:47:20.712Z,99728.08
2018-03-04T07:49:47.764Z,99727.63
2018-03-04T07:52:14.687Z,99720.52
2018-03-04T07:54:41.638Z,99717.69
2018-03-04T07:57:08.401Z,99726.36
2018-03-04T07:59:35.156Z,99722.80
2018-03-04T08:02:01.884Z,99718.66
2018-03-04T08:04:28.793Z,99719.78
2018-03-04T08:06:56.703Z,99726.69
2018-03-04T08:09:23.553Z,99716.92
2018-03-04T08:11:49.917Z,99706.34
2018-03-04T08:14:17.561Z,99710.55
2018-03-04T08:16:44.422Z,99715.02
2018-03-04T08:19:11.275Z,99707.19
2018-03-04T08:21:37.624Z,99708.05
2018-03-04T08:24:04.726Z,99710.64
2018-03-04T08:26:51.133Z,99706.63
2018-03-04T08:29:18.337Z,99699.45
2018-03-04T08:31:45.852Z,99703.77
2018-03-04T08:34:12.628Z,99702.67
2018-03-04T08:36:39.376Z,99701.16
2018-03-04T08:39:06.501Z,99709.39
2018-03-04T08:41:33.282Z,99713.90
2018-03-04T08:44:00.529Z,99715.14
2018-03-04T08:46:26.915Z,99704.45
2018-03-04T08:48:53.740Z,99709.00
2018-03-04T08:51:20.560Z,99705.97
2018-03-04T08:53:47.495Z,99701.98
2018-03-04T08:56:14.294Z,99702.22
2018-03-04T08:58:41.357Z,99701.19
2018-03-04T09:01:08.153Z,99709.80
2018-03-04T09:03:34.853Z,99705.05
2018-03-04T09:06:01.235Z,99703.37
2018-03-04T09:08:28.005Z,99701.94
2018-03-04T09:10:55.324Z,99701.11
2018-03-04T09:13:21.716Z,99695.75
2018-03-04T09:15:48.081Z,99693.17
2018-03-04T09:18:14.654Z,99691.94
2018-03-04T09:20:41.174Z,99701.27
2018-03-04T09:23:07.539Z,99702.19
2018-03-04T09:25:34.058Z,99697.48
2018-03-04T09:28:00.838Z,99705.72
2018-03-04T09:30:28.174Z,99705.17
2018-03-04T09:32:54.529Z,99692.33
2018-03-04T09:35:21.761Z,99686.06
2018-03-04T09:37:48.134Z,99687.11
2018-03-04T09:40:15.304Z,99690.86
2018-03-04T09:42:41.895Z,99690.95
2018-03-04T09:45:08.257Z,99686.39
2018-03-04T09:48:40.819Z,99658.27
2018-03-04T09:51:07.919Z,99661.89
2018-03-04T09:53:34.301Z,99660.22
2018-03-04T09:56:01.629Z,99650.80
2018-03-04T09:58:28.834Z,99654.25
2018-03-04T10:00:55.667Z,99651.91
2018-03-04T10:03:22.908Z,99651.76
2018-03-04T10:05:50.157Z,99653.52
2018-03-04T10:08:16.633Z,99656.76
2018-03-04T10:10:43.168Z,99654.17
2018-03-04T10:13:10.374Z,99655.07
2018-03-04T10:15:37.465Z,99647.12
2018-03-04T10:18:05.002Z,99648.38
2018-03-04T10:20:31.940Z,99643.57
2018-03-04T10:22:59.119Z,99638.09
2018-03-04T10:25:26.244Z,99637.19
2018-03-04T10:27:52.760Z,99633.08
2018-03-04T10:30:19.126Z,99637.45
2018-03-04T10:32:45.726Z,99640.83
2018-03-04T10:35:12.358Z,99626.80
2018-03-04T10:37:39.589Z,99626.97
2018-03-04T10:40:05.963Z,99626.80
2018-03-04T10:42:33.179Z,99626.70
2018-03-04T10:45:00.073Z,99629.88
2018-03-04T10:47:26.538Z,99631.62
2018-03-04T10:49:52.929Z,99634.02
2018-03-04T10:52:20.390Z,99624.90
2018-03-04T10:54:47.955Z,99624.64
2018-03-04T10:57:15.058Z,99618.73
2018-03-04T10:59:42.356Z,99623.83
2018-03-04T11:02:15.632Z,99626.39
2018-03-04T11:04:42.019Z,99630.04
2018-03-04T11:07:09.135Z,99630.77
2018-03-04T11:09:35.521Z,99632.27
2018-03-04T11:12:01.924Z,99630.30
2018-03-04T11:14:28.848Z,99626.23
2018-03-04T11:16:55.608Z,99619.90
2018-03-04T11:19:29.012Z,99622.50
2018-03-04T11:21:55.481Z,99618.06
2018-03-04T11:24:21.846Z,99616.47
2018-03-04T11:26:48.700Z,99606.67
2018-03-04T11:29:15.593Z,99610.34
2018-03-04T11:31:42.715Z,99596.56
2018-03-04T11:34:09.972Z,99596.89
2018-03-04T11:36:36.807Z,99593.08
2018-03-04T11:39:03.331Z,99596.20
2018-03-04T11:41:29.711Z,99590.08
2018-03-04T11:43:56.240Z,99584.16
2018-03-04T11:46:22.716Z,99571.97
2018-03-04T11:48:50.246Z,99566.98
2018-03-04T11:51:17.045Z,99557.88
2018-03-04T11:53:43.741Z,99554.56
2018-03-04T11:56:10.116Z,99553.54
2018-03-04T11:58:37.438Z,99548.14
2018-03-04T12:01:04.479Z,99548.05
2018-03-04T12:03:31.505Z,99551.37
2018-03-04T12:05:57.930Z,99548.12
2018-03-04T12:08:24.398Z,99544.83
2018-03-04T12:10:51.379Z,99528.94
2018-03-04T12:13:18.164Z,99536.82
2018-03-04T12:15:44.940Z,99535.58
2018-03-04T12:18:11.311Z,99529.67
2018-03-04T12:20:37.847Z,99528.52
2018-03-04T12:23:04.716Z,99520.47
2018-03-04T12:25:32.156Z,99518.08
2018-03-04T12:27:59.193Z,99506.40
2018-03-04T12:30:25.596Z,99511.36
2018-03-04T12:32:51.963Z,99501.09
2018-03-04T12:35:19.136Z,99497.69
2018-03-04T12:37:46.075Z,99493.14
2018-03-04T12:40:13.137Z,99498.52
2018-03-04T12:42:39.912Z,99492.38
2018-03-04T12:45:07.300Z,99484.16
2018-03-04T12:47:34.145Z,99481.03
2018-03-04T12:50:00.885Z,99476.08
2018-03-04T12:52:27.724Z,99470.19
2018-03-04T12:54:54.837Z,99468.69
2018-03-04T12:57:21.435Z,99464.96
2018-03-04T12:59:49.045Z,99460.25
2018-03-04T13:02:16.198Z,99455.09
2018-03-04T13:04:42.828Z,99453.03
2018-03-04T13:07:10.700Z,99448.61
2018-03-04T13:09:37.789Z,99448.96
2018-03-04T13:12:05.645Z,99438.73
2018-03-04T13:14:32.542Z,99435.22
2018-03-04T13:16:59.462Z,99429.28
2018-03-04T13:19:26.563Z,99427.98
2018-03-04T13:21:53.387Z,99426.27
2018-03-04T13:24:20.314Z,99422.86
2018-03-04T13:26:47.814Z,99419.63
2018-03-04T13:29:14.948Z,99414.80
2018-03-04T13:31:42.006Z,99419.18
2018-03-04T13:34:08.807Z,99406.16
2018-03-04T13:36:36.365Z,99408.03
2018-03-04T13:39:03.008Z,99411.14
2018-03-04T13:41:29.928Z,99408.33
2018-03-04T13:43:56.293Z,99401.53
2018-03-04T13:46:22.817Z,99398.75
2018-03-04T13:48:49.608Z,99396.39
2018-03-04T13:51:16.002Z,99392.61
2018-03-04T13:53:42.781Z,99386.00
2018-03-04T13:56:09.164Z,99392.18
2018-03-04T13:58:35.546Z,99394.13
2018-03-04T14:01:02.430Z,99384.89
2018-03-04T14:03:28.808Z,99383.37
2018-03-04T14:05:55.612Z,99387.02
2018-03-04T14:08:22.756Z,99387.66
2018-03-04T14:10:49.106Z,99392.09
2018-03-04T14:13:16.002Z,99388.92
2018-03-04T14:15:42.882Z,99387.59
2018-03-04T14:18:09.271Z,99385.88
2018-03-04T14:20:35.643Z,99389.43
2018-03-04T14:23:02.177Z,99388.83
2018-03-04T14:25:28.560Z,99386.69
2018-03-04T14:27:55.289Z,99386.09
2018-03-04T14:30:22.109Z,99375.45
2018-03-04T14:32:48.502Z,99377.56
2018-03-04T14:35:14.868Z,99372.31
2018-03-04T14:37:41.430Z,99363.89
2018-03-04T14:40:07.800Z,99357.92
2018-03-04T14:42:35.220Z,99356.59
2018-03-04T14:45:01.764Z,99353.78
2018-03-04T14:47:28.368Z,99347.08
2018-03-04T14:49:54.754Z,99343.36
2018-03-04T14:52:21.298Z,99342.23
2018-03-04T14:54:47.659Z,99337.19
2018-03-04T14:57:14.821Z,99332.44
2018-03-04T14:59:42.059Z,99325.14
2018-03-04T15:02:08.540Z,99327.61
2018-03-04T15:04:35.052Z,99324.53
2018-03-04T15:07:02.905Z,99323.95
2018-03-04T15:09:29.387Z,99316.67
2018-03-04T15:11:55.759Z,99319.20
2018-03-04T15:14:22.297Z,99322.59
2018-03-04T15:16:48.681Z,99304.80
2018-03-04T15:19:15.062Z,99303.48
2018-03-04T15:21:41.544Z,99294.44
2018-03-04T15:24:08.338Z,99298.17
2018-03-04T15:26:34.716Z,99303.41
2018-03-04T15:29:01.229Z,99303.44
2018-03-04T15:31:27.613Z,99296.09
2018-03-04T15:33:54.740Z,99292.63
2018-03-04T15:36:21.289Z,99279.24
2018-03-04T15:38:48.026Z,99276.42
2018-03-04T15:41:14.380Z,99275.77
2018-03-04T15:43:40.882Z,99266.44
2018-03-04T15:46:07.249Z,99265.28
2018-03-04T15:48:33.679Z,99260.93
2018-03-04T15:51:00.215Z,99262.02
2018-03-04T15:53:26.999Z,99254.43
2018-03-04T15:55:54.639Z,99251.17
2018-03-04T15:58:21.441Z,99245.05
2018-03-04T16:00:47.818Z,99242.36
2018-03-04T16:03:14.231Z,99240.31
2018-03-04T16:05:41.207Z,99234.56
2018-03-04T16:08:07.626Z,99237.59
2018-03-04T16:10:34.030Z,99254.87
2018-03-04T16:13:00.574Z,99256.38
2018-03-04T16:15:27.401Z,99254.98
2018-03-04T16:17:54.517Z,99275.28
2018-03-04T16:20:20.918Z,99277.80
2018-03-04T16:22:47.732Z,99280.37
2018-03-04T16:25:14.096Z,99270.28
2018-03-04T16:27:40.470Z,99273.88
2018-03-04T16:30:07.730Z,99269.02
2018-03-04T16:32:34.110Z,99265.91
2018-03-04T16:35:01.225Z,99266.15
2018-03-04T16:37:28.210Z,99266.84
2018-03-04T16:39:55.016Z,99262.41
2018-03-04T16:42:22.086Z,99256.63
2018-03-04T16:44:48.475Z,99255.75
2018-03-04T16:47:14.830Z,99260.16
2018-03-04T16:49:41.326Z,99257.61
2018-03-04T16:52:08.501Z,99253.17
2018-03-04T16:54:34.932Z,99248.88
2018-03-04T16:57:01.784Z,99245.50
2018-03-04T16:59:29.259Z,99254.39
2018-03-04T17:01:55.671Z,99247.45
2018-03-04T17:04:22.789Z,99248.69
2018-03-04T17:06:49.753Z,99252.47
2018-03-04T17:09:16.124Z,99247.39
2018-03-04T17:11:43.247Z,99246.52
2018-03-04T17:14:09.760Z,99238.73
2018-03-04T17:16:36.116Z,99242.92
2018-03-04T17:19:02.505Z,99237.31
2018-03-04T17:21:30.145Z,99235.62
2018-03-04T17:23:57.353Z,99226.63
2018-03-04T17:26:23.903Z,99230.63
2018-03-04T17:28:50.689Z,99232.48
2018-03-04T17:31:17.677Z,99233.59
2018-03-04T17:33:44.188Z,99241.61
2018-03-04T17:36:11.644Z,99239.55
2018-03-04T17:38:38.832Z,99236.66
2018-03-04T17:41:05.283Z,99238.31
2018-03-04T17:43:32.806Z,99223.56
2018-03-04T17:46:00.144Z,99232.61
2018-03-04T17:48:26.758Z,99234.55
2018-03-04T17:50:53.366Z,99249.95
2018-03-04T17:53:20.247Z,99241.15
2018-03-04T17:55:46.810Z,99242.44
2018-03-04T17:58:13.344Z,99239.25
2018-03-04T18:00:39.761Z,99232.82
2018-03-04T18:03:06.140Z,99226.80
2018-03-04T18:05:33.487Z,99223.25
2018-03-04T18:08:00.661Z,99220.72
2018-03-04T18:10:27.041Z,99220.27
2018-03-04T18:12:53.548Z,99206.72
2018-03-04T18:15:20.726Z,99200.73
2018-03-04T18:17:47.092Z,99195.58
2018-03-04T18:20:14.257Z,99189.18
2018-03-04T18:22:40.663Z,99184.89
2018-03-04T18:25:07.090Z,99182.75
2018-03-04T18:27:33.693Z,99175.42
2018-03-04T18:30:00.592Z,99172.20
2018-03-04T18:32:27.024Z,99171.11
2018-03-04T18:34:53.412Z,99168.78
2018-03-04T18:37:20.361Z,99162.91
2018-03-04T18:39:46.748Z,99153.97
2018-03-04T18:42:13.185Z,99147.70
2018-03-04T18:44:40.504Z,99154.42
2018-03-04T18:47:06.920Z,99150.92
2018-03-04T18:49:33.638Z,99148.52
2018-03-04T18:52:00.233Z,99135.57
2018-03-04T18:54:26.635Z,99135.59
2018-03-04T18:56:53.042Z,99139.25
2018-03-04T18:59:19.608Z,99131.59
2018-03-04T19:01:46.503Z,99126.94
2018-03-04T19:04:13.497Z,99119.91
2018-03-04T19:06:40.337Z,99126.55
2018-03-04T19:09:06.849Z,99124.89
2018-03-04T19:11:33.274Z,99123.33
2018-03-04T19:13:59.821Z,99107.78
2018-03-04T19:16:27.065Z,99106.88
2018-03-04T19:18:53.465Z,99099.86
2018-03-04T19:21:19.956Z,99096.48
2018-03-04T19:23:46.492Z,99097.89
2018-03-04T19:26:13.436Z,99089.84
2018-03-04T19:28:40.641Z,99095.56
2018-03-04T19:31:07.088Z,99088.14
2018-03-04T19:33:33.672Z,99084.03
2018-03-04T19:36:00.135Z,99079.83
2018-03-04T19:38:27.273Z,99082.39
2018-03-04T19:40:53.800Z,99076.41
2018-03-04T19:43:20.633Z,99070.97
2018-03-04T19:45:47.021Z,99072.48
2018-03-04T19:48:14.249Z,99072.76
2018-03-04T19:50:40.699Z,99075.03
2018-03-04T19:53:07.141Z,99077.54
2018-03-04T19:55:34.145Z,99066.14
2018-03-04T19:58:00.514Z,99071.64
2018-03-04T20:00:26.903Z,99065.75
2018-03-04T20:02:53.750Z,99065.92
2018-03-04T20:05:20.713Z,99072.08
2018-03-04T20:07:47.562Z,99068.42
2018-03-04T20:10:15.017Z,99068.64
2018-03-04T20:12:41.450Z,99069.30
2018-03-04T20:15:07.905Z,99059.72
2018-03-04T20:17:34.443Z,99061.02
2018-03-04T20:20:01.521Z,99055.71
2018-03-04T20:22:28.098Z,99071.23
2018-03-04T20:24:55.747Z,99068.62
2018-03-04T20:27:23.676Z,99070.19
2018-03-04T20:29:50.334Z,99072.27
2018-03-04T20:32:16.933Z,99069.58
2018-03-04T20:34:44.287Z,99072.20
2018-03-04T20:37:11.454Z,99066.53
2018-03-04T20:39:37.968Z,99060.73
2018-03-04T20:42:05.246Z,99063.30
2018-03-04T20:44:32.476Z,99065.14
2018-03-04T20:46:58.879Z,99065.03
2018-03-04T20:49:25.476Z,99076.78
2018-03-04T20:51:51.866Z,99083.03
2018-03-04T20:54:18.243Z,99077.05
2018-03-04T20:56:45.295Z,99089.55
2018-03-04T20:59:11.799Z,99093.46
2018-03-04T21:01:38.186Z,99099.06
2018-03-04T21:04:05.618Z,99103.95
2018-03-04T21:06:32.257Z,99100.58
2018-03-04T21:08:59.109Z,99100.36
2018-03-04T21:11:25.631Z,99108.67
2018-03-04T21:13:52.029Z,99111.92
2018-03-04T21:16:18.429Z,99117.92
2018-03-04T21:18:45.025Z,99122.55
2018-03-04T21:21:11.396Z,99131.55
2018-03-04T21:23:38.169Z,99135.40
2018-03-04T21:26:06.138Z,99149.54
2018-03-04T21:28:32.832Z,99151.15
2018-03-04T21:30:59.224Z,99152.87
2018-03-04T21:33:25.750Z,99156.97
2018-03-04T21:35:52.449Z,99164.92
2018-03-04T21:38:18.847Z,99178.27
2018-03-04T21:40:45.375Z,99179.43
2018-03-04T21:43:11.767Z,99176.49
2018-03-04T21:45:38.158Z,99183.77
2018-03-04T21:48:04.655Z,99186.59
2018-03-04T21:50:31.793Z,99190.12
2018-03-04T21:52:58.149Z,99190.12
2018-03-04T21:55:24.532Z,99203.48
2018-03-04T21:57:51.032Z,99197.92
2018-03-04T22:00:17.437Z,99202.17
2018-03-04T22:02:43.805Z,99212.30
2018-03-04T22:05:10.724Z,99220.34
2018-03-04T22:07:37.136Z,99223.65
2018-03-04T22:10:03.550Z,99227.97
2018-03-04T22:12:30.238Z,99232.51
2018-03-04T22:14:57.350Z,99233.83
2018-03-04T22:17:24.556Z,99238.58
2018-03-04T22:19:51.519Z,99246.70
2018-03-04T22:22:18.914Z,99244.05
2018-03-04T22:24:46.063Z,99249.09
2018-03-04T22:27:12.761Z,99256.44
2018-03-04T22:29:40.096Z,99262.59
2018-03-04T22:32:06.453Z,99263.06
2018-03-04T22:34:33.552Z,99261.91
2018-03-04T22:37:00.109Z,99268.95
2018-03-04T22:39:27.317Z,99276.56
2018-03-04T22:41:54.245Z,99283.86
2018-03-04T22:44:21.890Z,99291.30
2018-03-04T22:46:49.036Z,99285.48
2018-03-04T22:49:15.832Z,99293.77
2018-03-04T22:51:42.194Z,99297.89
2018-03-04T22:54:09.068Z,99296.41
2018-03-04T22:56:35.918Z,99301.27
2018-03-04T22:59:02.917Z,99310.31
2018-03-04T23:01:30.090Z,99304.08
2018-03-04T23:03:56.968Z,99303.05
2018-03-04T23:06:23.343Z,99284.08
2018-03-04T23:08:50.916Z,99297.66
2018-03-04T23:11:18.467Z,99306.48
2018-03-04T23:13:46.001Z,99307.06
2018-03-04T23:16:12.750Z,99303.00
2018-03-04T23:18:39.959Z,99302.56
2018-03-04T23:21:06.339Z,99310.02
2018-03-04T23:23:32.721Z,99307.84
2018-03-04T23:25:59.984Z,99317.11
2018-03-04T23:28:27.200Z,99309.41
2018-03-04T23:30:54.005Z,99316.00
2018-03-04T23:33:20.580Z,99303.11
2018-03-04T23:35:47.458Z,99310.59
2018-03-04T23:38:15.406Z,99308.36
2018-03-04T23:40:41.783Z,99307.77
2018-03-04T23:43:09.513Z,99324.52
2018-03-04T23:45:36.357Z,99317.66
2018-03-04T23:48:03.724Z,99322.24
2018-03-04T23:50:30.669Z,99328.48
2018-03-04T23:52:57.539Z,99327.83
2018-03-04T23:55:24.352Z,99337.87
2018-03-04T23:57:51.548Z,99332.09
